Time;durP1;ratioP1;P1;durP2;ratioP2;P2;SDS_P1;SDS_P2;PMS_P1;PMS_P2;Temp;Humidity;BMP_temperature;BMP_pressure;BME280_temperature;BME280_humidity;BME280_pressure;Samples;Min_cycle;Max_cycle;Signal;HPM_P1;HPM_P2
2021/11/20 00:00:09;;;;;;;25.80;14.30;;;8.30;99.90;;;;;;5119020;27;20686;-70
2021/11/20 00:02:57;;;;;;;26.27;15.90;;;8.30;99.90;;;;;;5117300;27;20669;-71
2021/11/20 00:05:47;;;;;;;27.00;14.47;;;8.30;99.90;;;;;;5123530;27;20716;-71
2021/11/20 00:08:35;;;;;;;25.10;13.80;;;8.30;99.90;;;;;;5116455;27;20211;-71
2021/11/20 00:11:26;;;;;;;28.60;16.00;;;8.30;99.90;;;;;;5119984;27;20198;-71
2021/11/20 00:14:13;;;;;;;24.50;13.80;;;8.30;99.90;;;;;;5122237;27;20191;-71
2021/11/20 00:17:01;;;;;;;22.43;13.63;;;8.30;99.90;;;;;;5118478;27;20690;-71
2021/11/20 00:19:49;;;;;;;21.80;12.17;;;8.30;99.90;;;;;;5114717;27;20220;-71
2021/11/20 00:22:38;;;;;;;23.57;13.93;;;8.30;99.90;;;;;;5117719;27;20198;-71
2021/11/20 00:25:28;;;;;;;23.07;12.67;;;8.30;99.90;;;;;;5125322;27;20722;-71
2021/11/20 00:28:20;;;;;;;21.67;13.40;;;8.40;99.90;;;;;;5116381;27;20215;-71
2021/11/20 00:31:10;;;;;;;16.10;9.27;;;8.30;99.90;;;;;;5118513;27;20286;-70
2021/11/20 00:33:57;;;;;;;20.80;13.07;;;8.30;99.90;;;;;;5121209;27;20201;-70
2021/11/20 00:36:45;;;;;;;22.97;12.40;;;8.40;99.90;;;;;;5116969;27;20205;-71
2021/11/20 00:39:33;;;;;;;20.63;12.30;;;8.40;99.90;;;;;;5121404;27;20218;-70
2021/11/20 00:42:21;;;;;;;22.53;13.07;;;8.40;99.90;;;;;;5122725;27;21817;-71
2021/11/20 00:45:10;;;;;;;21.93;12.30;;;8.30;99.90;;;;;;5114828;27;20673;-71
2021/11/20 00:47:58;;;;;;;24.13;12.60;;;8.30;99.90;;;;;;5119421;27;20640;-70
2021/11/20 00:50:47;;;;;;;21.60;12.83;;;8.30;99.90;;;;;;5123170;27;20195;-71
2021/11/20 00:53:35;;;;;;;20.93;11.03;;;8.30;99.90;;;;;;5112985;27;20199;-70
2021/11/20 00:56:24;;;;;;;22.87;11.93;;;8.30;99.90;;;;;;5121714;27;20225;-71
2021/11/20 00:59:11;;;;;;;23.03;11.30;;;8.30;99.90;;;;;;5121375;27;20197;-70
2021/11/20 01:02:02;;;;;;;21.33;11.50;;;8.30;99.90;;;;;;5118049;27;20202;-70
2021/11/20 01:04:50;;;;;;;18.70;10.57;;;8.30;99.90;;;;;;5117731;27;20198;-70
2021/11/20 01:07:38;;;;;;;22.13;11.97;;;8.30;99.90;;;;;;5116014;27;20669;-71
2021/11/20 01:10:28;;;;;;;19.13;10.40;;;8.40;99.90;;;;;;5123732;27;20562;-71
2021/11/20 01:13:16;;;;;;;21.60;10.43;;;8.40;99.90;;;;;;5114775;27;20200;-70
2021/11/20 01:16:06;;;;;;;21.30;11.97;;;8.40;99.90;;;;;;5123687;27;20262;-71
2021/11/20 01:18:56;;;;;;;21.00;11.30;;;8.30;99.90;;;;;;5114884;27;20213;-71
2021/11/20 01:21:43;;;;;;;17.20;10.97;;;8.30;99.90;;;;;;5120661;27;20202;-71
2021/11/20 01:24:31;;;;;;;19.27;11.00;;;8.40;99.90;;;;;;5118974;27;20222;-71
2021/11/20 01:27:19;;;;;;;20.47;10.03;;;8.30;99.90;;;;;;5119703;27;20195;-71
2021/11/20 01:30:08;;;;;;;20.70;10.60;;;8.40;99.90;;;;;;5118673;27;20195;-71
2021/11/20 01:32:56;;;;;;;19.23;11.10;;;8.40;99.90;;;;;;5115914;27;20198;-71
2021/11/20 01:35:45;;;;;;;18.77;9.93;;;8.40;99.90;;;;;;5119235;27;20196;-71
2021/11/20 01:38:32;;;;;;;16.93;9.57;;;8.40;99.90;;;;;;5117331;27;20205;-70
2021/11/20 01:41:20;;;;;;;17.57;9.70;;;8.40;99.90;;;;;;5120470;27;20211;-70
2021/11/20 01:44:11;;;;;;;16.10;8.67;;;8.40;99.90;;;;;;5114884;27;20294;-70
2021/11/20 01:47:01;;;;;;;17.30;8.47;;;8.40;99.90;;;;;;5123174;27;20282;-70
2021/11/20 01:49:52;;;;;;;18.93;9.13;;;8.40;99.90;;;;;;5124269;27;20652;-71
2021/11/20 01:52:46;;;;;;;11.80;8.17;;;8.40;99.90;;;;;;5120687;28;20186;-71
2021/11/20 01:55:37;;;;;;;12.47;7.83;;;8.50;99.90;;;;;;5119654;28;21109;-70
2021/11/20 01:58:26;;;;;;;17.17;9.07;;;8.50;99.90;;;;;;5120573;28;20203;-71
2021/11/20 02:01:15;;;;;;;14.30;7.87;;;8.50;99.90;;;;;;5123547;28;20199;-71
2021/11/20 02:04:05;;;;;;;13.00;7.53;;;8.50;99.90;;;;;;5118085;28;20207;-71
2021/11/20 02:06:59;;;;;;;11.97;7.70;;;8.50;99.90;;;;;;5113857;28;20211;-71
2021/11/20 02:10:05;;;;;;;16.17;8.33;;;8.50;99.90;;;;;;5115741;28;20692;-71
2021/11/20 02:12:54;;;;;;;14.83;8.23;;;8.50;99.90;;;;;;5116842;28;20546;-71
2021/11/20 02:15:45;;;;;;;12.10;8.00;;;8.50;99.90;;;;;;5116923;27;20197;-71
2021/11/20 02:18:34;;;;;;;14.00;7.83;;;8.50;99.90;;;;;;5115820;27;20654;-71
2021/11/20 02:21:24;;;;;;;18.00;7.97;;;8.50;99.90;;;;;;5119749;27;20198;-71
2021/11/20 02:24:11;;;;;;;16.53;7.57;;;8.50;99.90;;;;;;5128507;27;20553;-72
2021/11/20 02:26:58;;;;;;;13.97;7.57;;;8.50;99.90;;;;;;5126568;27;20612;-71
2021/11/20 02:29:46;;;;;;;16.73;7.23;;;8.50;99.90;;;;;;5122163;27;20206;-71
2021/11/20 02:32:35;;;;;;;14.73;7.57;;;8.50;99.90;;;;;;5120024;27;20207;-71
2021/11/20 02:35:25;;;;;;;18.07;7.33;;;8.50;99.90;;;;;;5121818;27;20198;-70
2021/11/20 02:38:13;;;;;;;15.10;7.33;;;8.50;99.90;;;;;;5125052;27;20640;-71
2021/11/20 02:41:02;;;;;;;15.87;5.77;;;8.50;99.90;;;;;;5126360;27;20197;-71
2021/11/20 02:43:51;;;;;;;12.93;6.63;;;8.50;99.90;;;;;;5125569;27;20232;-71
2021/11/20 02:46:40;;;;;;;12.37;6.63;;;8.50;99.90;;;;;;5121446;27;20218;-71
2021/11/20 02:49:30;;;;;;;20.43;7.30;;;8.50;99.90;;;;;;5122203;27;20191;-71
2021/11/20 02:52:18;;;;;;;14.80;7.23;;;8.60;99.90;;;;;;5118204;27;20277;-71
2021/11/20 02:55:06;;;;;;;12.30;5.70;;;8.60;99.90;;;;;;5124081;27;20586;-71
2021/11/20 02:57:54;;;;;;;10.17;5.83;;;8.60;99.90;;;;;;5125688;27;20199;-71
2021/11/20 03:00:41;;;;;;;15.37;6.30;;;8.50;99.90;;;;;;5121169;27;20191;-71
2021/11/20 03:03:29;;;;;;;13.73;6.50;;;8.50;99.90;;;;;;5119802;27;20258;-70
2021/11/20 03:06:18;;;;;;;13.70;5.83;;;8.60;99.90;;;;;;5119705;27;20658;-71
2021/11/20 03:09:06;;;;;;;12.67;5.77;;;8.60;99.90;;;;;;5115967;27;20292;-71
2021/11/20 03:11:54;;;;;;;12.50;6.33;;;8.60;99.90;;;;;;5117767;27;20209;-71
2021/11/20 03:14:42;;;;;;;11.13;6.07;;;8.60;99.90;;;;;;5121147;27;20217;-72
2021/11/20 03:17:29;;;;;;;11.93;6.43;;;8.60;99.90;;;;;;5127502;27;20202;-71
2021/11/20 03:20:18;;;;;;;14.60;6.60;;;8.60;99.90;;;;;;5114921;27;20669;-72
2021/11/20 03:23:14;;;;;;;14.97;6.37;;;8.60;99.90;;;;;;5120491;27;20688;-71
2021/11/20 03:26:02;;;;;;;9.30;4.97;;;8.60;99.90;;;;;;5121355;27;20211;-70
2021/11/20 03:28:49;;;;;;;13.67;6.97;;;8.60;99.90;;;;;;5122588;27;20213;-71
2021/11/20 03:31:37;;;;;;;10.67;5.47;;;8.60;99.90;;;;;;5115110;27;20207;-70
2021/11/20 03:34:26;;;;;;;11.73;6.97;;;8.60;99.90;;;;;;5120833;27;20380;-71
2021/11/20 03:37:14;;;;;;;12.83;6.23;;;8.60;99.90;;;;;;5125045;27;20847;-71
2021/11/20 03:40:03;;;;;;;12.77;6.20;;;8.60;99.90;;;;;;5119937;27;20242;-70
2021/11/20 03:42:51;;;;;;;12.50;6.83;;;8.60;99.90;;;;;;5117386;27;20227;-70
2021/11/20 03:45:39;;;;;;;16.43;6.93;;;8.60;99.90;;;;;;5120716;27;20653;-71
2021/11/20 03:48:26;;;;;;;14.30;7.27;;;8.60;99.90;;;;;;5121106;27;20926;-71
2021/11/20 03:51:14;;;;;;;15.67;8.33;;;8.50;99.90;;;;;;5123625;27;20532;-71
2021/11/20 03:54:02;;;;;;;14.60;8.13;;;8.50;99.90;;;;;;5118889;27;20559;-71
2021/11/20 03:56:51;;;;;;;14.07;7.53;;;8.50;99.90;;;;;;5119418;27;20218;-71
2021/11/20 03:59:38;;;;;;;15.43;8.43;;;8.50;99.90;;;;;;5126888;27;20557;-71
2021/11/20 04:02:26;;;;;;;23.47;9.70;;;8.40;99.90;;;;;;5124220;27;20700;-71
2021/11/20 04:05:15;;;;;;;20.60;9.43;;;8.40;99.90;;;;;;5118264;27;20593;-72
2021/11/20 04:08:03;;;;;;;12.77;7.97;;;8.40;99.90;;;;;;5112908;27;20944;-71
2021/11/20 04:10:51;;;;;;;20.03;10.40;;;8.40;99.90;;;;;;5123224;27;20199;-70
2021/11/20 04:13:41;;;;;;;23.23;11.03;;;8.40;99.90;;;;;;5125243;27;20561;-71
2021/11/20 04:16:29;;;;;;;20.70;10.40;;;8.30;99.90;;;;;;5115734;27;20199;-71
2021/11/20 04:19:17;;;;;;;20.23;10.83;;;8.20;99.90;;;;;;5117787;27;20562;-71
2021/11/20 04:22:05;;;;;;;21.17;10.33;;;8.20;99.90;;;;;;5115042;27;20203;-71
2021/11/20 04:24:53;;;;;;;24.73;10.77;;;8.20;99.90;;;;;;5116369;27;20199;-71
2021/11/20 04:27:40;;;;;;;24.17;11.80;;;8.10;99.90;;;;;;5121015;27;20219;-71
2021/11/20 04:30:29;;;;;;;22.93;12.10;;;8.10;99.90;;;;;;5120022;27;20191;-71
2021/11/20 04:33:17;;;;;;;21.33;11.17;;;8.10;99.90;;;;;;5121117;27;20202;-71
2021/11/20 04:36:06;;;;;;;23.37;12.30;;;8.10;99.90;;;;;;5112431;27;20192;-72
2021/11/20 04:38:53;;;;;;;25.57;12.27;;;8.10;99.90;;;;;;5116126;27;20199;-71
2021/11/20 04:41:41;;;;;;;21.93;10.67;;;8.10;99.90;;;;;;5119345;27;20210;-71
2021/11/20 04:44:29;;;;;;;18.50;10.60;;;8.10;99.90;;;;;;5119985;27;20267;-71
2021/11/20 04:47:19;;;;;;;23.17;11.67;;;8.00;99.90;;;;;;5124467;27;20217;-72
2021/11/20 04:50:08;;;;;;;20.90;12.23;;;8.00;99.90;;;;;;5114377;27;20660;-71
2021/11/20 04:52:56;;;;;;;24.57;12.67;;;8.00;99.90;;;;;;5118212;27;20199;-71
2021/11/20 04:55:43;;;;;;;20.43;10.90;;;8.00;99.90;;;;;;5118692;27;20625;-71
2021/11/20 04:58:31;;;;;;;22.47;11.03;;;8.00;99.90;;;;;;5125836;27;20243;-71
2021/11/20 05:01:23;;;;;;;21.63;11.40;;;8.00;99.90;;;;;;5120860;27;20206;-71
2021/11/20 05:04:12;;;;;;;20.57;12.77;;;8.00;99.90;;;;;;5119274;27;20200;-71
2021/11/20 05:07:00;;;;;;;12.90;7.87;;;8.00;99.90;;;;;;5121536;27;20559;-72
2021/11/20 05:09:47;;;;;;;18.87;11.13;;;8.00;99.90;;;;;;5121485;27;20199;-73
2021/11/20 05:12:35;;;;;;;15.87;9.00;;;8.00;99.90;;;;;;5121305;27;20217;-71
2021/11/20 05:15:23;;;;;;;20.73;12.00;;;8.00;99.90;;;;;;5118911;27;20207;-72
2021/11/20 05:18:10;;;;;;;20.67;12.30;;;8.00;99.90;;;;;;5120219;27;20202;-72
2021/11/20 05:21:00;;;;;;;26.93;12.73;;;8.00;99.90;;;;;;5117886;27;20212;-72
2021/11/20 05:23:48;;;;;;;22.50;12.13;;;8.00;99.90;;;;;;5123316;27;20669;-72
2021/11/20 05:26:36;;;;;;;22.63;12.47;;;8.00;99.90;;;;;;5119387;27;20221;-72
2021/11/20 05:29:31;;;;;;;22.10;11.73;;;8.00;99.90;;;;;;5112981;27;20355;-72
2021/11/20 05:32:18;;;;;;;23.27;11.20;;;8.00;99.90;;;;;;5116869;27;20197;-73
2021/11/20 05:35:07;;;;;;;19.57;12.23;;;8.00;99.90;;;;;;5115808;27;20223;-72
2021/11/20 05:37:56;;;;;;;23.43;12.33;;;8.00;99.90;;;;;;5117232;27;20197;-72
2021/11/20 05:40:43;;;;;;;23.60;11.70;;;8.10;99.90;;;;;;5121839;27;20561;-72
2021/11/20 05:43:31;;;;;;;24.50;12.67;;;8.10;99.90;;;;;;5118316;27;20242;-72
2021/11/20 05:46:20;;;;;;;22.33;12.20;;;8.10;99.90;;;;;;5116033;27;20686;-72
2021/11/20 05:49:08;;;;;;;20.63;12.57;;;8.10;99.90;;;;;;5114983;27;20197;-72
2021/11/20 05:52:01;;;;;;;24.80;11.90;;;8.10;99.90;;;;;;5114805;27;20230;-71
2021/11/20 05:54:57;;;;;;;20.53;11.33;;;8.10;99.90;;;;;;5119270;27;20354;-72
2021/11/20 05:57:47;;;;;;;22.23;12.77;;;8.10;99.90;;;;;;5121655;28;20211;-71
2021/11/20 06:00:40;;;;;;;18.43;11.27;;;8.10;99.90;;;;;;5101004;28;20201;-71
2021/11/20 06:03:29;;;;;;;19.30;11.40;;;8.10;99.90;;;;;;5096962;28;20675;-71
2021/11/20 06:06:18;;;;;;;22.03;11.67;;;8.10;99.90;;;;;;5123051;28;20198;-72
2021/11/20 06:09:12;;;;;;;26.27;12.00;;;8.10;99.90;;;;;;5118943;28;20193;-71
2021/11/20 06:12:09;;;;;;;20.43;12.27;;;8.20;99.90;;;;;;5122245;28;20545;-72
2021/11/20 06:15:01;;;;;;;19.93;12.53;;;8.20;99.90;;;;;;5117604;28;20259;-72
2021/11/20 06:17:55;;;;;;;25.83;11.67;;;8.20;99.90;;;;;;5120341;28;20210;-72
2021/11/20 06:20:43;;;;;;;19.30;12.73;;;8.20;99.90;;;;;;5116803;28;20193;-72
2021/11/20 06:23:31;;;;;;;17.77;11.87;;;8.30;99.90;;;;;;5113570;28;20206;-71
2021/11/20 06:26:19;;;;;;;23.70;12.60;;;8.30;99.90;;;;;;5110422;28;20207;-71
2021/11/20 06:29:08;;;;;;;25.00;12.43;;;8.30;99.90;;;;;;5126340;28;20196;-72
2021/11/20 06:31:55;;;;;;;22.73;12.57;;;8.30;99.90;;;;;;5130470;28;20653;-72
2021/11/20 06:35:14;;;;;;;18.47;11.40;;;8.30;99.90;;;;;;5118272;28;20214;-72
2021/11/20 06:38:02;;;;;;;21.47;13.20;;;8.30;99.90;;;;;;5114973;28;20204;-72
2021/11/20 06:40:51;;;;;;;19.50;11.53;;;8.30;99.90;;;;;;5117688;28;20226;-71
2021/11/20 06:43:39;;;;;;;23.50;12.40;;;8.30;99.90;;;;;;5111727;28;20227;-72
2021/11/20 06:46:28;;;;;;;19.47;11.70;;;8.30;99.90;;;;;;5121133;28;20585;-72
2021/11/20 06:49:16;;;;;;;20.40;12.00;;;8.30;99.90;;;;;;5116373;28;20198;-72
2021/11/20 06:52:04;;;;;;;19.83;12.87;;;8.40;99.90;;;;;;5122008;28;20195;-72
2021/11/20 06:54:52;;;;;;;21.73;11.97;;;8.40;99.90;;;;;;5110625;28;20225;-71
2021/11/20 06:57:52;;;;;;;22.37;13.07;;;8.40;99.90;;;;;;5117060;28;20192;-71
2021/11/20 07:00:41;;;;;;;21.43;12.97;;;8.40;99.90;;;;;;5121043;27;20657;-71
2021/11/20 07:03:32;;;;;;;25.27;14.30;;;8.40;99.90;;;;;;5124052;27;20205;-72
2021/11/20 07:06:21;;;;;;;25.93;14.80;;;8.40;99.90;;;;;;5121402;27;20211;-72
2021/11/20 07:09:09;;;;;;;20.67;13.00;;;8.40;99.90;;;;;;5122396;27;20711;-71
2021/11/20 07:11:56;;;;;;;24.63;15.23;;;8.40;99.90;;;;;;5126004;27;20232;-71
2021/11/20 07:14:44;;;;;;;25.97;16.00;;;8.30;99.90;;;;;;5125729;27;20222;-72
2021/11/20 07:17:32;;;;;;;25.07;16.03;;;8.40;99.90;;;;;;5122281;27;20751;-72
2021/11/20 07:20:21;;;;;;;28.93;16.80;;;8.30;99.90;;;;;;5124677;27;20213;-72
2021/11/20 07:23:09;;;;;;;33.30;20.33;;;8.30;99.90;;;;;;5121857;27;20988;-71
2021/11/20 07:25:57;;;;;;;35.70;19.97;;;8.20;99.90;;;;;;5123518;27;20195;-70
2021/11/20 07:28:45;;;;;;;37.17;21.23;;;8.20;99.90;;;;;;5117428;27;20300;-70
2021/11/20 07:31:32;;;;;;;29.00;15.27;;;8.10;99.90;;;;;;5116084;27;20207;-72
2021/11/20 07:34:20;;;;;;;40.27;21.13;;;8.10;99.90;;;;;;5119350;27;20213;-71
2021/11/20 07:37:09;;;;;;;36.77;23.00;;;8.10;99.90;;;;;;5119414;27;20652;-71
2021/11/20 07:39:57;;;;;;;36.73;21.40;;;8.10;99.90;;;;;;5117614;27;20203;-70
2021/11/20 07:42:45;;;;;;;39.13;24.20;;;8.10;99.90;;;;;;5117841;27;20283;-70
2021/11/20 07:45:32;;;;;;;39.90;23.23;;;8.10;99.90;;;;;;5123848;27;20205;-72
2021/11/20 07:48:21;;;;;;;38.53;23.20;;;8.10;99.90;;;;;;5118337;27;20673;-71
2021/11/20 07:51:09;;;;;;;35.17;22.13;;;8.10;99.90;;;;;;5121765;27;20207;-71
2021/11/20 07:53:59;;;;;;;39.37;22.13;;;8.10;99.90;;;;;;5115318;27;20195;-70
2021/11/20 07:56:46;;;;;;;35.53;21.13;;;8.20;99.90;;;;;;5121745;27;20238;-71
2021/11/20 07:59:34;;;;;;;43.60;23.43;;;8.10;99.90;;;;;;5129392;27;20229;-71
2021/11/20 08:02:22;;;;;;;37.30;21.00;;;8.10;99.90;;;;;;5116422;27;20213;-70
2021/11/20 08:05:10;;;;;;;38.47;22.23;;;8.10;99.90;;;;;;5113768;27;20203;-70
2021/11/20 08:07:58;;;;;;;34.10;21.37;;;8.10;99.90;;;;;;5130031;27;20219;-70
2021/11/20 08:10:47;;;;;;;38.30;22.43;;;8.20;99.90;;;;;;5119859;27;20200;-71
2021/11/20 08:13:36;;;;;;;39.97;23.17;;;8.20;99.90;;;;;;5113133;27;20645;-71
2021/11/20 08:16:23;;;;;;;41.03;22.17;;;8.20;99.90;;;;;;5115285;27;20335;-71
2021/11/20 08:19:11;;;;;;;37.87;21.40;;;8.20;99.90;;;;;;5120771;27;20545;-70
2021/11/20 08:21:59;;;;;;;36.73;20.53;;;8.20;99.90;;;;;;5116190;27;20190;-70
2021/11/20 08:24:47;;;;;;;37.87;22.60;;;8.30;99.90;;;;;;5116066;27;20194;-70
2021/11/20 08:27:36;;;;;;;39.23;22.80;;;8.30;99.90;;;;;;5116125;27;20353;-69
2021/11/20 08:30:27;;;;;;;34.60;19.80;;;8.40;99.90;;;;;;5123550;27;20210;-70
2021/11/20 08:33:15;;;;;;;36.20;22.27;;;8.40;99.90;;;;;;5116176;27;20190;-70
2021/11/20 08:36:02;;;;;;;41.53;20.73;;;8.40;99.90;;;;;;5112120;28;21061;-70
2021/11/20 08:38:50;;;;;;;37.47;20.70;;;8.50;99.90;;;;;;5112306;28;20199;-70
2021/11/20 08:41:38;;;;;;;42.80;23.87;;;8.40;99.90;;;;;;5112145;28;20203;-70
2021/11/20 08:44:27;;;;;;;37.80;23.17;;;8.50;99.90;;;;;;5111161;28;20704;-70
2021/11/20 08:47:15;;;;;;;33.93;18.80;;;8.50;99.90;;;;;;5114718;27;20226;-70
2021/11/20 08:50:03;;;;;;;38.47;22.27;;;8.60;99.90;;;;;;5117694;27;20752;-70
2021/11/20 08:52:51;;;;;;;33.93;20.53;;;8.70;99.90;;;;;;5111609;28;20206;-70
2021/11/20 08:55:40;;;;;;;35.87;22.70;;;8.70;99.90;;;;;;5122012;27;20222;-70
2021/11/20 08:58:28;;;;;;;40.50;21.87;;;8.70;99.90;;;;;;5115467;27;20559;-70
2021/11/20 09:01:18;;;;;;;37.40;21.83;;;8.80;99.90;;;;;;5124338;27;20672;-70
2021/11/20 09:04:07;;;;;;;37.50;21.17;;;8.80;99.90;;;;;;5123726;27;20205;-70
2021/11/20 09:06:58;;;;;;;34.00;19.13;;;8.90;99.90;;;;;;5113552;27;20677;-69
2021/11/20 09:09:49;;;;;;;35.50;20.53;;;8.90;99.90;;;;;;5111840;28;20658;-69
2021/11/20 09:12:40;;;;;;;34.47;18.17;;;8.90;99.90;;;;;;5113323;27;20230;-69
2021/11/20 09:15:30;;;;;;;30.20;16.00;;;9.00;99.90;;;;;;5110992;28;20210;-68
2021/11/20 09:18:19;;;;;;;31.30;18.70;;;9.00;99.90;;;;;;5118391;27;20546;-69
2021/11/20 09:21:08;;;;;;;32.40;17.80;;;9.20;99.90;;;;;;5121873;27;20662;-69
2021/11/20 09:23:56;;;;;;;28.83;17.97;;;9.30;99.90;;;;;;5113084;27;20198;-70
2021/11/20 09:26:44;;;;;;;28.67;16.47;;;9.50;99.90;;;;;;5123194;27;20236;-70
2021/11/20 09:29:31;;;;;;;31.30;18.83;;;9.40;99.90;;;;;;5111463;28;20852;-70
2021/11/20 09:32:19;;;;;;;36.80;19.77;;;9.50;99.90;;;;;;5113154;27;20264;-70
2021/11/20 09:35:09;;;;;;;35.30;18.63;;;9.40;99.90;;;;;;5116863;27;20203;-71
2021/11/20 09:37:56;;;;;;;31.53;18.83;;;9.50;99.90;;;;;;5118404;27;20199;-71
2021/11/20 09:40:46;;;;;;;32.93;18.90;;;9.50;99.90;;;;;;5125703;27;20524;-70
2021/11/20 09:43:34;;;;;;;32.70;19.50;;;9.60;99.90;;;;;;5118466;27;20231;-70
2021/11/20 09:46:24;;;;;;;28.50;17.97;;;9.50;99.90;;;;;;5119398;27;20399;-70
2021/11/20 09:49:15;;;;;;;32.90;18.70;;;9.60;99.90;;;;;;5110762;27;20704;-70
2021/11/20 09:52:05;;;;;;;35.50;19.77;;;9.50;99.90;;;;;;5121451;27;20282;-70
2021/11/20 09:54:53;;;;;;;34.70;18.13;;;9.50;99.90;;;;;;5116617;28;20582;-70
2021/11/20 09:57:45;;;;;;;29.93;17.73;;;9.50;99.90;;;;;;5126472;28;20232;-70
2021/11/20 10:01:08;;;;;;;29.63;17.40;;;9.60;99.90;;;;;;5115042;28;20203;-70
2021/11/20 10:04:21;;;;;;;33.80;17.97;;;9.60;99.90;;;;;;5029775;28;20238;-70
2021/11/20 10:07:14;;;;;;;33.93;19.77;;;9.60;99.90;;;;;;5033063;28;20740;-69
2021/11/20 10:10:05;;;;;;;31.60;17.50;;;9.70;99.90;;;;;;5044614;28;20199;-69
2021/11/20 10:12:54;;;;;;;35.03;17.13;;;9.80;99.90;;;;;;5032545;28;20217;-69
2021/11/20 10:15:44;;;;;;;27.87;17.00;;;9.80;99.90;;;;;;5031911;28;20269;-69
2021/11/20 10:18:33;;;;;;;29.53;17.20;;;9.80;99.90;;;;;;5029738;28;20198;-70
2021/11/20 10:21:23;;;;;;;31.90;17.00;;;9.80;99.90;;;;;;5029417;28;20579;-70
2021/11/20 10:24:16;;;;;;;34.17;18.67;;;9.90;99.90;;;;;;5038071;28;20199;-69
2021/11/20 10:27:21;;;;;;;31.63;16.50;;;9.90;99.90;;;;;;5040520;28;20200;-69
2021/11/20 10:30:22;;;;;;;27.60;16.50;;;9.90;99.90;;;;;;5034102;28;20715;-69
2021/11/20 10:33:13;;;;;;;25.43;14.50;;;9.90;99.90;;;;;;5042663;28;20224;-70
2021/11/20 10:36:06;;;;;;;21.47;13.77;;;9.90;99.90;;;;;;5033125;28;20735;-70
2021/11/20 10:38:56;;;;;;;29.47;16.73;;;9.90;99.90;;;;;;5035098;28;20206;-70
2021/11/20 10:41:52;;;;;;;31.87;17.93;;;9.90;99.90;;;;;;5105994;27;20215;-69
2021/11/20 10:44:45;;;;;;;23.20;13.20;;;9.80;99.90;;;;;;5100349;28;20223;-70
2021/11/20 10:47:39;;;;;;;24.17;13.70;;;9.90;99.90;;;;;;5130699;27;20207;-70
2021/11/20 10:50:30;;;;;;;19.70;11.57;;;9.90;99.90;;;;;;5113934;28;20199;-71
2021/11/20 10:53:51;;;;;;;22.43;12.27;;;9.90;99.90;;;;;;5121244;27;20196;-70
2021/11/20 10:56:44;;;;;;;24.50;13.80;;;9.80;99.90;;;;;;5128152;27;20194;-70
2021/11/20 11:00:04;;;;;;;17.67;11.47;;;9.80;99.90;;;;;;5128551;27;20669;-69
2021/11/20 11:03:33;;;;;;;29.63;15.60;;;9.70;99.90;;;;;;5114939;27;20199;-69
2021/11/20 11:06:39;;;;;;;31.50;19.00;;;9.60;99.90;;;;;;5127371;27;20268;-69
2021/11/20 11:09:41;;;;;;;35.20;21.40;;;9.60;99.90;;;;;;5112273;28;20576;-70
2021/11/20 11:12:35;;;;;;;37.57;19.83;;;9.50;99.90;;;;;;5096707;28;20233;-69
2021/11/20 11:15:31;;;;;;;34.90;21.67;;;9.40;99.90;;;;;;5133961;27;20204;-70
2021/11/20 11:18:39;;;;;;;43.67;24.90;;;9.40;99.90;;;;;;5115413;27;20195;-69
2021/11/20 11:21:55;;;;;;;46.67;24.87;;;9.30;99.90;;;;;;5129255;27;20207;-70
2021/11/20 11:25:08;;;;;;;45.57;22.67;;;9.30;99.90;;;;;;5114094;27;20655;-69
2021/11/20 11:28:11;;;;;;;31.77;19.90;;;9.20;99.90;;;;;;5120863;27;20312;-70
2021/11/20 11:31:11;;;;;;;31.30;18.30;;;9.20;99.90;;;;;;5122464;27;20210;-70
2021/11/20 11:34:01;;;;;;;27.07;16.93;;;9.20;99.90;;;;;;5123273;27;20205;-71
2021/11/20 11:36:51;;;;;;;25.47;15.07;;;9.10;99.90;;;;;;5122491;27;20197;-70
2021/11/20 11:39:42;;;;;;;30.37;17.07;;;9.20;99.90;;;;;;5127256;27;20207;-70
2021/11/20 11:42:44;;;;;;;24.70;15.13;;;9.10;99.90;;;;;;5118214;27;20844;-69
2021/11/20 11:46:08;;;;;;;26.50;16.37;;;9.10;99.90;;;;;;5123024;27;20199;-69
2021/11/20 11:49:48;;;;;;;26.97;18.23;;;9.10;99.90;;;;;;5118748;27;20227;-69
2021/11/20 11:52:51;;;;;;;28.73;17.23;;;9.10;99.90;;;;;;5061630;28;20215;-69
2021/11/20 11:55:44;;;;;;;35.20;20.67;;;9.10;99.90;;;;;;5059821;28;20236;-70
2021/11/20 11:58:51;;;;;;;32.13;19.97;;;9.00;99.90;;;;;;5056442;28;20216;-70
2021/11/20 12:01:43;;;;;;;30.90;19.63;;;9.00;99.90;;;;;;5058419;28;20216;-70
2021/11/20 12:04:38;;;;;;;33.90;20.50;;;8.90;99.90;;;;;;5052791;28;20205;-70
2021/11/20 12:07:46;;;;;;;30.60;19.73;;;8.90;99.90;;;;;;5054276;28;20585;-69
2021/11/20 12:10:48;;;;;;;36.57;22.53;;;8.90;99.90;;;;;;5053639;28;20208;-69
2021/11/20 12:13:37;;;;;;;26.87;15.50;;;8.90;99.90;;;;;;5055270;28;20208;-69
2021/11/20 12:16:47;;;;;;;29.53;17.93;;;9.00;99.90;;;;;;5062796;28;20774;-70
2021/11/20 12:19:38;;;;;;;29.93;20.27;;;8.90;99.90;;;;;;5065677;28;20212;-70
2021/11/20 12:22:32;;;;;;;26.87;18.40;;;8.90;99.90;;;;;;5052297;28;20583;-71
2021/11/20 12:25:29;;;;;;;26.30;15.20;;;8.90;99.90;;;;;;5070266;28;20191;-70
2021/11/20 12:28:29;;;;;;;29.10;18.57;;;8.80;99.90;;;;;;5110527;27;20704;-71
2021/11/20 12:31:30;;;;;;;30.33;19.13;;;8.80;99.90;;;;;;5111175;27;20565;-71
2021/11/20 12:34:40;;;;;;;28.57;17.93;;;8.80;99.90;;;;;;5117743;27;20280;-70
2021/11/20 12:37:48;;;;;;;29.73;18.63;;;8.80;99.90;;;;;;5121136;27;20633;-71
2021/11/20 12:41:04;;;;;;;24.03;17.03;;;8.70;99.90;;;;;;5115806;27;20199;-71
2021/11/20 12:44:18;;;;;;;29.27;18.37;;;8.70;99.90;;;;;;5110485;27;20663;-71
2021/11/20 12:47:25;;;;;;;25.23;17.30;;;8.70;99.90;;;;;;5032957;28;20240;-71
2021/11/20 12:50:26;;;;;;;30.80;20.23;;;8.70;99.90;;;;;;5036798;28;20228;-71
2021/11/20 12:53:24;;;;;;;31.70;20.33;;;8.70;99.90;;;;;;5036937;28;20193;-71
2021/11/20 12:56:33;;;;;;;33.30;21.07;;;8.70;99.90;;;;;;5035006;28;20216;-71
2021/11/20 12:59:22;;;;;;;35.20;20.77;;;8.60;99.90;;;;;;5039809;28;20201;-70
2021/11/20 13:02:15;;;;;;;31.80;20.90;;;8.60;99.90;;;;;;5029772;28;20206;-70
2021/11/20 13:05:12;;;;;;;31.23;19.70;;;8.60;99.90;;;;;;5040510;28;20695;-70
2021/11/20 13:08:00;;;;;;;30.37;18.73;;;8.70;99.90;;;;;;5032285;28;20197;-70
2021/11/20 13:10:58;;;;;;;30.13;19.73;;;8.70;99.90;;;;;;5033466;28;20251;-70
2021/11/20 13:13:49;;;;;;;31.07;18.97;;;8.60;99.90;;;;;;5035151;28;20203;-69
2021/11/20 13:16:45;;;;;;;28.80;18.60;;;8.60;99.90;;;;;;5029537;28;20784;-70
2021/11/20 13:19:34;;;;;;;29.97;19.67;;;8.70;99.90;;;;;;5035110;28;20212;-70
2021/11/20 13:22:24;;;;;;;31.30;20.00;;;8.70;99.90;;;;;;5033419;28;20201;-70
2021/11/20 13:25:14;;;;;;;32.60;21.47;;;8.70;99.90;;;;;;5121677;27;20203;-70
2021/11/20 13:28:04;;;;;;;31.23;20.70;;;8.60;99.90;;;;;;5123360;27;20723;-70
2021/11/20 13:30:53;;;;;;;32.60;20.00;;;8.60;99.90;;;;;;5120674;27;20247;-70
2021/11/20 13:33:46;;;;;;;35.13;22.40;;;8.60;99.90;;;;;;5114807;27;20190;-70
2021/11/20 13:36:34;;;;;;;31.83;19.40;;;8.60;99.90;;;;;;5118499;27;20203;-70
2021/11/20 13:39:23;;;;;;;32.93;21.90;;;8.60;99.90;;;;;;5123587;27;20198;-70
2021/11/20 13:42:12;;;;;;;32.57;19.63;;;8.60;99.90;;;;;;5117224;27;20580;-71
2021/11/20 13:45:05;;;;;;;33.47;21.43;;;8.60;99.90;;;;;;5117044;27;20708;-70
2021/11/20 13:47:53;;;;;;;30.80;21.23;;;8.60;99.90;;;;;;5113637;27;20242;-70
2021/11/20 13:50:41;;;;;;;29.70;18.87;;;8.60;99.90;;;;;;5118802;27;20243;-70
2021/11/20 13:53:32;;;;;;;35.47;21.40;;;8.60;99.90;;;;;;5120412;27;20211;-70
2021/11/20 13:56:20;;;;;;;36.30;22.50;;;8.60;99.90;;;;;;5121464;27;20221;-70
2021/11/20 13:59:08;;;;;;;36.33;21.53;;;8.60;99.90;;;;;;5116636;28;20203;-69
2021/11/20 14:01:58;;;;;;;35.53;22.23;;;8.60;99.90;;;;;;5122852;28;20273;-69
2021/11/20 14:04:46;;;;;;;32.90;21.30;;;8.60;99.90;;;;;;5117974;28;20691;-69
2021/11/20 14:07:35;;;;;;;37.20;19.43;;;8.60;99.90;;;;;;5118396;28;20235;-70
2021/11/20 14:10:30;;;;;;;35.10;21.30;;;8.60;99.90;;;;;;5121607;27;20214;-69
2021/11/20 14:16:34;;;;;;;40.67;24.63;;;8.60;99.90;;;;;;5116963;27;20564;-69
2021/11/20 14:20:08;;;;;;;37.13;22.43;;;8.60;99.90;;;;;;5127053;27;20207;-69
2021/11/20 14:22:57;;;;;;;39.40;23.10;;;8.60;99.90;;;;;;5101367;28;20211;-69
2021/11/20 14:25:45;;;;;;;32.80;19.83;;;8.50;99.90;;;;;;5115989;27;20203;-70
2021/11/20 14:28:36;;;;;;;33.53;21.53;;;8.50;99.90;;;;;;5119133;27;20217;-69
2021/11/20 14:31:24;;;;;;;37.77;22.83;;;8.50;99.90;;;;;;5123776;27;20684;-69
2021/11/20 14:34:15;;;;;;;40.20;23.87;;;8.50;99.90;;;;;;5123446;27;20207;-70
2021/11/20 14:37:12;;;;;;;39.33;24.00;;;8.60;99.90;;;;;;5122610;27;20217;-69
2021/11/20 14:40:05;;;;;;;35.73;20.97;;;8.50;99.90;;;;;;5127833;27;20217;-70
2021/11/20 14:42:53;;;;;;;34.63;21.57;;;8.50;99.90;;;;;;5123427;27;20551;-69
2021/11/20 14:45:41;;;;;;;36.30;22.43;;;8.50;99.90;;;;;;5123399;27;20203;-70